Terminal Aerodrome Forecast
Issued by NWS Mt. Holly, NJ

Home | Current Version | Previous Version | Text Only | Print | Product List | Glossary On
Versions: 1 2 3 4 5 6 7 8 9 10 11 12 13 14 15 16 17 18
000
FTUS41 KPHI 220500
TAFILG
TAF
KILG 220539Z 2206/2306 01010KT P6SM SCT025 OVC040
     FM220900 03010KT 6SM -RA SCT015 OVC035
     FM221100 02010KT 4SM -RA BR BKN008
     FM221600 02012G20KT 4SM RA BKN015
     FM222100 35016G25KT 6SM -RA BKN020
     FM230200 35017KT P6SM OVC025=

USA.gov is the U.S. government's official web portal to all federal, state and local government web resources and services.